createdAt,value
2018-03-01T00:00:43.495Z,1010.80
2018-03-01T00:01:43.488Z,1010.78
2018-03-01T00:02:43.483Z,1010.78
2018-03-01T00:03:43.476Z,1010.83
2018-03-01T00:04:44.483Z,1010.84
2018-03-01T00:05:43.475Z,1010.88
2018-03-01T00:06:43.499Z,1010.86
2018-03-01T00:07:43.474Z,1010.86
2018-03-01T00:08:43.470Z,1010.82
2018-03-01T00:09:43.459Z,1010.76
2018-03-01T00:10:43.467Z,1010.76
2018-03-01T00:11:43.462Z,1010.74
2018-03-01T00:12:43.457Z,1010.72
2018-03-01T00:13:43.457Z,1010.82
2018-03-01T00:14:43.454Z,1010.70
2018-03-01T00:15:43.450Z,1010.70
2018-03-01T00:16:43.456Z,1010.76
2018-03-01T00:17:43.445Z,1010.83
2018-03-01T00:18:43.453Z,1010.74
2018-03-01T00:19:43.444Z,1010.79
2018-03-01T00:20:43.445Z,1010.74
2018-03-01T00:21:43.435Z,1010.72
2018-03-01T00:22:43.435Z,1010.73
2018-03-01T00:23:43.436Z,1010.70
2018-03-01T00:24:43.462Z,1010.68
2018-03-01T00:25:43.451Z,1010.64
2018-03-01T00:26:43.426Z,1010.70
2018-03-01T00:27:43.421Z,1010.73
2018-03-01T00:28:43.420Z,1010.67
2018-03-01T00:29:43.419Z,1010.65
2018-03-01T00:30:43.441Z,1010.63
2018-03-01T00:31:43.414Z,1010.63
2018-03-01T00:32:43.439Z,1010.65
2018-03-01T00:33:43.405Z,1010.64
2018-03-01T00:34:43.408Z,1010.66
2018-03-01T00:35:43.419Z,1010.64
2018-03-01T00:36:43.401Z,1010.69
2018-03-01T00:37:43.403Z,1010.62
2018-03-01T00:38:43.407Z,1010.59
2018-03-01T00:39:43.389Z,1010.60
2018-03-01T00:40:43.401Z,1010.63
2018-03-01T00:41:43.391Z,1010.51
2018-03-01T00:42:43.406Z,1010.56
2018-03-01T00:43:43.382Z,1010.48
2018-03-01T00:44:43.387Z,1010.50
2018-03-01T00:45:43.376Z,1010.43
2018-03-01T00:46:43.381Z,1010.47
2018-03-01T00:47:43.376Z,1010.40
2018-03-01T00:48:43.394Z,1010.38
2018-03-01T00:49:43.371Z,1010.34
2018-03-01T00:50:43.366Z,1010.32
2018-03-01T00:51:43.363Z,1010.37
2018-03-01T00:52:43.370Z,1010.29
2018-03-01T00:53:43.355Z,1010.28
2018-03-01T00:54:43.371Z,1010.37
2018-03-01T00:55:43.354Z,1010.40
2018-03-01T00:56:43.350Z,1010.33
2018-03-01T00:57:43.345Z,1010.32
2018-03-01T00:58:43.363Z,1010.33
2018-03-01T00:59:43.343Z,1010.36
2018-03-01T01:00:43.349Z,1010.34
2018-03-01T01:01:43.343Z,1010.31
2018-03-01T01:02:43.337Z,1010.25
2018-03-01T01:03:43.330Z,1010.21
2018-03-01T01:04:43.344Z,1010.23
2018-03-01T01:05:43.335Z,1010.19
2018-03-01T01:06:43.326Z,1010.20
2018-03-01T01:07:43.335Z,1010.08
2018-03-01T01:08:43.324Z,1010.15
2018-03-01T01:09:43.321Z,1010.19
2018-03-01T01:10:43.334Z,1010.11
2018-03-01T01:11:43.324Z,1010.20
2018-03-01T01:12:43.331Z,1010.19
2018-03-01T01:13:43.314Z,1010.09
2018-03-01T01:14:43.309Z,1010.07
2018-03-01T01:15:43.296Z,1010.14
2018-03-01T01:16:43.314Z,1010.09
2018-03-01T01:17:43.296Z,1010.12
2018-03-01T01:18:43.303Z,1010.12
2018-03-01T01:19:43.290Z,1010.09
2018-03-01T01:20:43.368Z,1010.12
2018-03-01T01:21:43.288Z,1010.08
2018-03-01T01:22:43.286Z,1010.18
2018-03-01T01:23:43.328Z,1010.06
2018-03-01T01:24:43.291Z,1010.03
2018-03-01T01:25:43.271Z,1010.08
2018-03-01T01:26:43.286Z,1009.99
2018-03-01T01:27:43.270Z,1010.06
2018-03-01T01:28:43.277Z,1010.01
2018-03-01T01:29:43.275Z,1009.99
2018-03-01T01:30:44.269Z,1010.02
2018-03-01T01:31:43.265Z,1010.01
2018-03-01T01:32:44.274Z,1010.01
2018-03-01T01:33:43.257Z,1009.94
2018-03-01T01:34:43.336Z,1009.91
2018-03-01T01:35:43.251Z,1009.88
2018-03-01T01:36:43.253Z,1009.95
2018-03-01T01:37:43.247Z,1009.93
2018-03-01T01:38:43.245Z,1009.89
2018-03-01T01:39:43.263Z,1009.97
2018-03-01T01:40:43.252Z,1009.95
2018-03-01T01:41:43.250Z,1009.95
2018-03-01T01:42:43.257Z,1009.84
2018-03-01T01:43:43.289Z,1009.82
2018-03-01T01:44:43.233Z,1009.78
2018-03-01T01:45:43.241Z,1009.89
2018-03-01T01:46:43.226Z,1009.83
2018-03-01T01:47:43.220Z,1009.77
2018-03-01T01:48:43.220Z,1009.69
2018-03-01T01:49:43.215Z,1009.70
2018-03-01T01:50:43.219Z,1009.66
2018-03-01T01:51:43.229Z,1009.61
2018-03-01T01:52:43.236Z,1009.62
2018-03-01T01:53:43.221Z,1009.59
2018-03-01T01:54:43.209Z,1009.60
2018-03-01T01:55:43.201Z,1009.56
2018-03-01T01:56:43.205Z,1009.55
2018-03-01T01:57:43.197Z,1009.48
2018-03-01T01:58:43.198Z,1009.45
2018-03-01T01:59:43.187Z,1009.48
2018-03-01T02:00:43.205Z,1009.39
2018-03-01T02:01:43.192Z,1009.48
2018-03-01T02:02:43.186Z,1009.37
2018-03-01T02:03:43.175Z,1009.43
2018-03-01T02:04:43.213Z,1009.38
2018-03-01T02:05:43.178Z,1009.42
2018-03-01T02:06:43.176Z,1009.33
2018-03-01T02:07:43.170Z,1009.40
2018-03-01T02:08:43.180Z,1009.29
2018-03-01T02:09:43.163Z,1009.28
2018-03-01T02:10:43.166Z,1009.25
2018-03-01T02:11:43.162Z,1009.28
2018-03-01T02:12:43.164Z,1009.18
2018-03-01T02:13:43.157Z,1009.29
2018-03-01T02:14:43.149Z,1009.24
2018-03-01T02:15:43.156Z,1009.22
2018-03-01T02:16:43.150Z,1009.20
2018-03-01T02:17:43.163Z,1009.22
2018-03-01T02:18:43.134Z,1009.19
2018-03-01T02:19:43.154Z,1009.27
2018-03-01T02:20:43.139Z,1009.18
2018-03-01T02:21:44.134Z,1009.22
2018-03-01T02:22:43.134Z,1009.19
2018-03-01T02:23:43.124Z,1009.22
2018-03-01T02:24:43.123Z,1009.23
2018-03-01T02:25:43.131Z,1009.10
2018-03-01T02:26:43.119Z,1009.12
2018-03-01T02:27:45.119Z,1009.19
2018-03-01T02:28:43.110Z,1009.19
2018-03-01T02:29:43.320Z,1009.14
2018-03-01T02:30:43.114Z,1009.12
2018-03-01T02:31:43.112Z,1009.10
2018-03-01T02:32:43.105Z,1009.08
2018-03-01T02:33:43.111Z,1009.08
2018-03-01T02:34:43.097Z,1009.06
2018-03-01T02:35:43.101Z,1009.05
2018-03-01T02:36:43.088Z,1009.03
2018-03-01T02:37:43.096Z,1009.00
2018-03-01T02:38:43.095Z,1009.00
2018-03-01T02:39:43.116Z,1009.04
2018-03-01T02:40:43.082Z,1009.04
2018-03-01T02:41:43.083Z,1008.98
2018-03-01T02:42:43.092Z,1008.91
2018-03-01T02:43:43.078Z,1008.93
2018-03-01T02:44:43.089Z,1008.95
2018-03-01T02:45:43.098Z,1008.98
2018-03-01T02:46:43.062Z,1008.97
2018-03-01T02:47:44.069Z,1008.91
2018-03-01T02:48:43.067Z,1008.91
2018-03-01T02:49:43.055Z,1008.96
2018-03-01T02:50:43.052Z,1008.96
2018-03-01T02:51:44.059Z,1008.89
2018-03-01T02:52:43.084Z,1008.92
2018-03-01T02:53:44.059Z,1008.81
2018-03-01T02:54:43.044Z,1008.84
2018-03-01T02:55:45.054Z,1008.74
2018-03-01T02:56:43.047Z,1008.73
2018-03-01T02:57:43.037Z,1008.74
2018-03-01T02:58:43.037Z,1008.78
2018-03-01T02:59:43.032Z,1008.72
2018-03-01T03:00:43.029Z,1008.71
2018-03-01T03:01:43.029Z,1008.86
2018-03-01T03:02:43.034Z,1008.85
2018-03-01T03:03:43.023Z,1008.79
2018-03-01T03:04:43.014Z,1008.73
2018-03-01T03:05:44.014Z,1008.77
2018-03-01T03:06:43.012Z,1008.85
2018-03-01T03:07:43.011Z,1008.74
2018-03-01T03:08:43.001Z,1008.78
2018-03-01T03:09:43.004Z,1008.71
2018-03-01T03:10:43.002Z,1008.75
2018-03-01T03:11:43.000Z,1008.66
2018-03-01T03:12:42.993Z,1008.67
2018-03-01T03:13:42.996Z,1008.64
2018-03-01T03:14:42.991Z,1008.65
2018-03-01T03:15:42.990Z,1008.60
2018-03-01T03:16:42.980Z,1008.60
2018-03-01T03:17:42.984Z,1008.59
2018-03-01T03:18:42.974Z,1008.68
2018-03-01T03:19:42.988Z,1008.61
2018-03-01T03:20:42.974Z,1008.51
2018-03-01T03:21:42.971Z,1008.46
2018-03-01T03:22:42.976Z,1008.51
2018-03-01T03:23:42.973Z,1008.52
2018-03-01T03:24:42.962Z,1008.51
2018-03-01T03:25:43.964Z,1008.45
2018-03-01T03:26:42.953Z,1008.43
2018-03-01T03:27:43.958Z,1008.50
2018-03-01T03:28:42.949Z,1008.45
2018-03-01T03:29:42.995Z,1008.42
2018-03-01T03:30:42.953Z,1008.51
2018-03-01T03:31:42.943Z,1008.46
2018-03-01T03:32:42.950Z,1008.47
2018-03-01T03:33:42.948Z,1008.46
2018-03-01T03:34:42.929Z,1008.49
2018-03-01T03:35:42.931Z,1008.39
2018-03-01T03:36:42.929Z,1008.43
2018-03-01T03:37:42.923Z,1008.47
2018-03-01T03:38:42.940Z,1008.45
2018-03-01T03:39:42.925Z,1008.44
2018-03-01T03:40:42.915Z,1008.42
2018-03-01T03:41:42.918Z,1008.45
2018-03-01T03:42:42.908Z,1008.42
2018-03-01T03:43:42.907Z,1008.39
2018-03-01T03:44:42.911Z,1008.41
2018-03-01T03:45:42.910Z,1008.44
2018-03-01T03:46:42.901Z,1008.43
2018-03-01T03:47:42.900Z,1008.41
2018-03-01T03:48:42.896Z,1008.34
2018-03-01T03:49:42.894Z,1008.32
2018-03-01T03:50:42.884Z,1008.30
2018-03-01T03:51:42.904Z,1008.32
2018-03-01T03:52:42.880Z,1008.22
2018-03-01T03:53:42.882Z,1008.29
2018-03-01T03:54:42.871Z,1008.26
2018-03-01T03:55:42.878Z,1008.20
2018-03-01T03:56:42.870Z,1008.20
2018-03-01T03:57:42.874Z,1008.16
2018-03-01T03:58:42.867Z,1008.13
2018-03-01T03:59:42.862Z,1008.16
2018-03-01T04:00:42.860Z,1008.15
2018-03-01T04:01:42.863Z,1008.09
2018-03-01T04:02:42.854Z,1008.13
2018-03-01T04:03:42.860Z,1008.08
2018-03-01T04:04:42.849Z,1008.03
2018-03-01T04:05:42.855Z,1008.10
2018-03-01T04:06:42.848Z,1007.99
2018-03-01T04:07:42.848Z,1008.04
2018-03-01T04:08:42.836Z,1007.86
2018-03-01T04:09:42.876Z,1007.86
2018-03-01T04:10:42.834Z,1007.91
2018-03-01T04:11:42.842Z,1007.88
2018-03-01T04:12:42.975Z,1007.81
2018-03-01T04:13:43.876Z,1007.87
2018-03-01T04:14:42.823Z,1007.91
2018-03-01T04:15:43.841Z,1007.91
2018-03-01T04:16:42.819Z,1008.06
2018-03-01T04:17:42.848Z,1007.97
2018-03-01T04:18:42.850Z,1007.92
2018-03-01T04:19:42.801Z,1007.87
2018-03-01T04:20:42.877Z,1007.99
2018-03-01T04:21:42.802Z,1008.01
2018-03-01T04:22:42.795Z,1007.99
2018-03-01T04:23:42.803Z,1008.05
2018-03-01T04:24:42.791Z,1008.06
2018-03-01T04:25:42.801Z,1008.02
2018-03-01T04:26:42.789Z,1008.07
2018-03-01T04:27:42.794Z,1008.04
2018-03-01T04:28:42.781Z,1007.93
2018-03-01T04:29:42.781Z,1007.96
2018-03-01T04:30:42.779Z,1007.89
2018-03-01T04:31:42.775Z,1007.93
2018-03-01T04:32:42.780Z,1007.95
2018-03-01T04:33:42.766Z,1007.85
2018-03-01T04:34:42.762Z,1007.85
2018-03-01T04:35:42.761Z,1007.88
2018-03-01T04:36:42.759Z,1007.84
2018-03-01T04:37:42.758Z,1007.93
2018-03-01T04:38:42.774Z,1007.87
2018-03-01T04:39:42.755Z,1007.82
2018-03-01T04:40:42.760Z,1007.86
2018-03-01T04:41:42.742Z,1007.86
2018-03-01T04:42:42.743Z,1007.83
2018-03-01T04:43:42.753Z,1007.90
2018-03-01T04:44:42.735Z,1007.90
2018-03-01T04:45:42.727Z,1007.96
2018-03-01T04:46:42.723Z,1007.96
2018-03-01T04:47:42.728Z,1007.99
2018-03-01T04:48:42.720Z,1007.93
2018-03-01T04:49:42.781Z,1007.96
2018-03-01T04:50:42.732Z,1007.95
2018-03-01T04:51:42.719Z,1007.87
2018-03-01T04:52:42.705Z,1007.86
2018-03-01T04:53:42.709Z,1007.88
2018-03-01T04:54:42.702Z,1007.80
2018-03-01T04:55:42.714Z,1007.82
2018-03-01T04:56:42.702Z,1007.73
2018-03-01T04:57:42.703Z,1007.68
2018-03-01T04:58:42.688Z,1007.58
2018-03-01T04:59:42.697Z,1007.61
2018-03-01T05:00:42.699Z,1007.68
2018-03-01T05:01:42.717Z,1007.57
2018-03-01T05:02:42.682Z,1007.61
2018-03-01T05:03:42.699Z,1007.60
2018-03-01T05:04:42.687Z,1007.57
2018-03-01T05:05:43.677Z,1007.55
2018-03-01T05:06:42.669Z,1007.47
2018-03-01T05:07:42.668Z,1007.45
2018-03-01T05:08:42.666Z,1007.54
2018-03-01T05:09:42.658Z,1007.42
2018-03-01T05:10:42.678Z,1007.47
2018-03-01T05:11:42.660Z,1007.45
2018-03-01T05:12:42.676Z,1007.45
2018-03-01T05:13:42.656Z,1007.47
2018-03-01T05:14:42.646Z,1007.47
2018-03-01T05:15:42.665Z,1007.48
2018-03-01T05:16:42.641Z,1007.52
2018-03-01T05:17:42.638Z,1007.50
2018-03-01T05:18:42.655Z,1007.48
2018-03-01T05:19:42.633Z,1007.54
2018-03-01T05:20:42.623Z,1007.58
2018-03-01T05:21:42.629Z,1007.54
2018-03-01T05:22:42.619Z,1007.51
2018-03-01T05:23:42.636Z,1007.54
2018-03-01T05:24:42.619Z,1007.51
2018-03-01T05:25:43.624Z,1007.46
2018-03-01T05:26:42.611Z,1007.47
2018-03-01T05:27:42.612Z,1007.49
2018-03-01T05:28:42.603Z,1007.39
2018-03-01T05:29:42.599Z,1007.48
2018-03-01T05:30:42.595Z,1007.41
2018-03-01T05:31:42.600Z,1007.43
2018-03-01T05:32:42.603Z,1007.44
2018-03-01T05:33:42.608Z,1007.51
2018-03-01T05:34:42.613Z,1007.46
2018-03-01T05:35:42.606Z,1007.53
2018-03-01T05:36:42.588Z,1007.62
2018-03-01T05:37:42.581Z,1007.62
2018-03-01T05:38:42.569Z,1007.60
2018-03-01T05:39:42.568Z,1007.50
2018-03-01T05:40:42.567Z,1007.51
2018-03-01T05:41:42.597Z,1007.62
2018-03-01T05:42:42.565Z,1007.49
2018-03-01T05:43:42.587Z,1007.51
2018-03-01T05:44:42.578Z,1007.49
2018-03-01T05:45:42.557Z,1007.53
2018-03-01T05:46:42.563Z,1007.53
2018-03-01T05:47:42.547Z,1007.51
2018-03-01T05:48:42.571Z,1007.52
2018-03-01T05:49:42.540Z,1007.47
2018-03-01T05:50:42.532Z,1007.46
2018-03-01T05:51:43.540Z,1007.45
2018-03-01T05:52:42.535Z,1007.48
2018-03-01T05:53:49.182Z,1007.49
2018-03-01T05:54:42.529Z,1007.44
2018-03-01T05:55:43.535Z,1007.45
2018-03-01T05:56:42.530Z,1007.40
2018-03-01T05:57:42.520Z,1007.53
2018-03-01T05:58:42.513Z,1007.38
2018-03-01T05:59:48.161Z,1007.47
2018-03-01T06:00:42.503Z,1007.56
2018-03-01T06:01:42.504Z,1007.53
2018-03-01T06:02:42.518Z,1007.58
2018-03-01T06:03:43.504Z,1007.54
2018-03-01T06:04:42.504Z,1007.62
2018-03-01T06:05:43.508Z,1007.61
2018-03-01T06:06:42.489Z,1007.63
2018-03-01T06:07:43.506Z,1007.74
2018-03-01T06:08:42.525Z,1007.65
2018-03-01T06:09:42.496Z,1007.60
2018-03-01T06:10:42.500Z,1007.70
2018-03-01T06:11:42.515Z,1007.66
2018-03-01T06:12:42.467Z,1007.63
2018-03-01T06:13:43.476Z,1007.66
2018-03-01T06:14:42.483Z,1007.77
2018-03-01T06:15:43.465Z,1007.73
2018-03-01T06:16:42.461Z,1007.74
2018-03-01T06:17:44.481Z,1007.84
2018-03-01T06:18:42.494Z,1007.82
2018-03-01T06:19:42.458Z,1007.81
2018-03-01T06:20:42.442Z,1007.85
2018-03-01T06:21:42.453Z,1007.81
2018-03-01T06:22:42.433Z,1007.69
2018-03-01T06:23:42.435Z,1007.65
2018-03-01T06:24:42.428Z,1007.75
2018-03-01T06:25:42.430Z,1007.68
2018-03-01T06:26:42.438Z,1007.75
2018-03-01T06:27:42.433Z,1007.73
2018-03-01T06:28:42.421Z,1007.68
2018-03-01T06:29:42.418Z,1007.69
2018-03-01T06:30:42.409Z,1007.65
2018-03-01T06:31:42.417Z,1007.67
2018-03-01T06:32:42.408Z,1007.59
2018-03-01T06:33:42.437Z,1007.55
2018-03-01T06:34:42.402Z,1007.59
2018-03-01T06:35:42.412Z,1007.61
2018-03-01T06:36:42.392Z,1007.54
2018-03-01T06:37:42.395Z,1007.42
2018-03-01T06:38:42.388Z,1007.44
2018-03-01T06:39:42.400Z,1007.54
2018-03-01T06:40:42.391Z,1007.49
2018-03-01T06:41:42.384Z,1007.48
2018-03-01T06:42:42.384Z,1007.41
2018-03-01T06:43:42.383Z,1007.42
2018-03-01T06:44:42.375Z,1007.43
2018-03-01T06:45:42.373Z,1007.33
2018-03-01T06:46:42.370Z,1007.50
2018-03-01T06:47:42.368Z,1007.31
2018-03-01T06:48:42.356Z,1007.43
2018-03-01T06:49:42.363Z,1007.36
2018-03-01T06:50:42.349Z,1007.31
2018-03-01T06:51:42.355Z,1007.20
2018-03-01T06:52:42.349Z,1007.22
2018-03-01T06:53:43.361Z,1007.22
2018-03-01T06:54:42.336Z,1007.18
2018-03-01T06:55:42.342Z,1007.20
2018-03-01T06:56:42.338Z,1007.12
2018-03-01T06:57:42.336Z,1007.09
2018-03-01T06:58:42.328Z,1007.13
2018-03-01T06:59:42.326Z,1007.13
2018-03-01T07:00:42.325Z,1007.09
2018-03-01T07:01:42.322Z,1007.16
2018-03-01T07:02:42.341Z,1007.11
2018-03-01T07:03:42.315Z,1007.20
2018-03-01T07:04:42.318Z,1007.21
2018-03-01T07:05:43.338Z,1007.21
2018-03-01T07:06:42.299Z,1007.21
2018-03-01T07:07:42.298Z,1007.22
2018-03-01T07:08:42.309Z,1007.23
2018-03-01T07:09:42.297Z,1007.22
2018-03-01T07:10:42.287Z,1007.15
2018-03-01T07:11:42.325Z,1007.19
2018-03-01T07:12:42.286Z,1007.22
2018-03-01T07:13:42.288Z,1007.23
2018-03-01T07:14:42.275Z,1007.18
2018-03-01T07:15:42.280Z,1007.14
2018-03-01T07:16:42.363Z,1007.13
2018-03-01T07:17:44.277Z,1007.17
2018-03-01T07:18:42.267Z,1007.10
2018-03-01T07:19:42.282Z,1007.08
2018-03-01T07:20:42.266Z,1007.04
2018-03-01T07:21:42.264Z,1007.04
2018-03-01T07:22:42.252Z,1007.03
2018-03-01T07:23:43.286Z,1007.03
2018-03-01T07:24:42.252Z,1007.01
2018-03-01T07:25:47.175Z,1007.01
2018-03-01T07:26:42.238Z,1006.92
2018-03-01T07:27:43.252Z,1007.01
2018-03-01T07:28:42.232Z,1006.91
2018-03-01T07:29:43.232Z,1006.94
2018-03-01T07:30:42.225Z,1006.89
2018-03-01T07:31:44.251Z,1006.96
2018-03-01T07:32:42.220Z,1006.88
2018-03-01T07:33:47.156Z,1006.90
2018-03-01T07:34:42.230Z,1006.85
2018-03-01T07:35:42.226Z,1006.88
2018-03-01T07:36:42.202Z,1006.92
2018-03-01T07:37:42.206Z,1006.83
2018-03-01T07:38:42.208Z,1006.96
2018-03-01T07:39:42.203Z,1006.88
2018-03-01T07:40:42.214Z,1006.88
2018-03-01T07:41:43.198Z,1006.77
2018-03-01T07:42:42.207Z,1006.85
2018-03-01T07:43:43.200Z,1006.84
2018-03-01T07:44:42.182Z,1006.77
2018-03-01T07:45:43.183Z,1006.76
2018-03-01T07:46:42.172Z,1006.79
2018-03-01T07:47:42.173Z,1006.80
2018-03-01T07:48:42.174Z,1006.76
2018-03-01T07:49:42.174Z,1006.79
2018-03-01T07:50:42.176Z,1006.78
2018-03-01T07:51:42.164Z,1006.78
2018-03-01T07:52:42.160Z,1006.77
2018-03-01T07:53:42.173Z,1006.81
2018-03-01T07:54:42.149Z,1006.74
2018-03-01T07:55:42.174Z,1006.81
2018-03-01T07:56:42.153Z,1006.80
2018-03-01T07:57:42.138Z,1006.87
2018-03-01T07:58:42.142Z,1006.86
2018-03-01T07:59:42.130Z,1006.83
2018-03-01T08:00:42.155Z,1006.93
2018-03-01T08:01:42.126Z,1006.77
2018-03-01T08:02:42.131Z,1006.84
2018-03-01T08:03:42.117Z,1006.89
2018-03-01T08:04:42.222Z,1006.84
2018-03-01T08:05:42.117Z,1006.85
2018-03-01T08:06:42.117Z,1006.81
2018-03-01T08:07:42.120Z,1006.85
2018-03-01T08:08:42.107Z,1006.81
2018-03-01T08:09:42.098Z,1006.79
2018-03-01T08:10:42.106Z,1006.82
2018-03-01T08:11:42.098Z,1006.75
2018-03-01T08:12:42.144Z,1006.83
2018-03-01T08:13:42.111Z,1006.77
2018-03-01T08:14:42.238Z,1006.72
2018-03-01T08:15:42.088Z,1006.67
2018-03-01T08:16:42.197Z,1006.77
2018-03-01T08:17:42.085Z,1006.77
2018-03-01T08:18:42.111Z,1006.74
2018-03-01T08:19:42.071Z,1006.80
2018-03-01T08:20:43.136Z,1006.75
2018-03-01T08:21:42.081Z,1006.80
2018-03-01T08:22:53.711Z,1006.79
2018-03-01T08:23:42.059Z,1006.80
2018-03-01T08:24:44.101Z,1006.83
2018-03-01T08:25:42.354Z,1006.79
2018-03-01T08:26:42.161Z,1006.80
2018-03-01T08:27:42.050Z,1006.79
2018-03-01T08:28:43.131Z,1006.87
2018-03-01T08:29:42.034Z,1006.79
2018-03-01T08:30:42.042Z,1006.73
2018-03-01T08:31:43.114Z,1006.83
2018-03-01T08:32:42.036Z,1006.70
2018-03-01T08:33:44.061Z,1006.70
2018-03-01T08:34:42.036Z,1006.77
2018-03-01T08:35:42.157Z,1006.73
2018-03-01T08:36:42.020Z,1006.57
2018-03-01T08:37:42.040Z,1006.58
2018-03-01T08:38:42.020Z,1006.58
2018-03-01T08:39:42.046Z,1006.57
2018-03-01T08:40:42.036Z,1006.50
2018-03-01T08:41:42.061Z,1006.50
2018-03-01T08:42:41.998Z,1006.57
2018-03-01T08:43:42.008Z,1006.63
2018-03-01T08:44:42.052Z,1006.59
2018-03-01T08:45:41.992Z,1006.57
2018-03-01T08:46:42.063Z,1006.64
2018-03-01T08:47:41.991Z,1006.66
2018-03-01T08:48:42.104Z,1006.65
2018-03-01T08:49:41.982Z,1006.59
2018-03-01T08:50:42.105Z,1006.61
2018-03-01T08:51:41.974Z,1006.52
2018-03-01T08:52:42.013Z,1006.60
2018-03-01T08:53:41.969Z,1006.59
2018-03-01T08:54:41.970Z,1006.45
2018-03-01T08:55:41.965Z,1006.29
2018-03-01T08:56:42.037Z,1006.36
2018-03-01T08:57:41.988Z,1006.38
2018-03-01T08:58:42.046Z,1006.33
2018-03-01T08:59:41.951Z,1006.25
2018-03-01T09:00:42.064Z,1006.30
2018-03-01T09:01:41.944Z,1006.21
2018-03-01T09:02:41.942Z,1006.32
2018-03-01T09:03:41.977Z,1006.37
2018-03-01T09:04:42.041Z,1006.22
2018-03-01T09:05:42.001Z,1006.24
2018-03-01T09:06:41.939Z,1006.18
2018-03-01T09:07:41.977Z,1006.15
2018-03-01T09:08:41.940Z,1006.15
2018-03-01T09:09:42.090Z,1006.08
2018-03-01T09:10:41.920Z,1006.07
2018-03-01T09:11:42.022Z,1006.01
2018-03-01T09:12:41.920Z,1006.07
2018-03-01T09:13:42.936Z,1006.00
2018-03-01T09:14:41.921Z,1006.06
2018-03-01T09:15:41.928Z,1006.11
2018-03-01T09:16:41.920Z,1005.93
2018-03-01T09:17:42.967Z,1005.94
2018-03-01T09:18:41.900Z,1005.92
2018-03-01T09:19:41.956Z,1005.85
2018-03-01T09:20:41.925Z,1005.95
2018-03-01T09:21:41.943Z,1005.82
2018-03-01T09:22:41.901Z,1005.89
2018-03-01T09:23:41.976Z,1005.88
2018-03-01T09:24:41.906Z,1005.83
2018-03-01T09:25:42.995Z,1005.74
2018-03-01T09:26:41.885Z,1005.80
2018-03-01T09:27:53.680Z,1005.76
2018-03-01T09:28:41.886Z,1005.90
2018-03-01T09:30:03.061Z,1005.78
2018-03-01T09:30:41.888Z,1005.83
2018-03-01T09:31:41.927Z,1005.84
2018-03-01T09:32:41.873Z,1005.90
2018-03-01T09:33:43.982Z,1005.77
2018-03-01T09:34:41.868Z,1005.82
2018-03-01T09:35:46.767Z,1005.66
2018-03-01T09:36:41.857Z,1005.70
2018-03-01T09:38:06.743Z,1005.69
2018-03-01T09:38:41.894Z,1005.74
2018-03-01T09:39:53.753Z,1005.63
2018-03-01T09:40:41.864Z,1005.64
2018-03-01T09:41:41.890Z,1005.61
2018-03-01T09:42:41.893Z,1005.66
2018-03-01T09:43:43.950Z,1005.64
2018-03-01T09:44:41.861Z,1005.69
2018-03-01T09:45:41.932Z,1005.71
2018-03-01T09:46:41.833Z,1005.60
2018-03-01T09:47:41.929Z,1005.63
2018-03-01T09:48:41.841Z,1005.57
2018-03-01T09:49:41.942Z,1005.60
2018-03-01T09:50:41.834Z,1005.53
2018-03-01T09:51:56.705Z,1005.48
2018-03-01T09:52:41.820Z,1005.57
2018-03-01T10:05:15.100Z,1005.59
2018-03-01T10:06:05.330Z,1005.43
2018-03-01T10:07:05.414Z,1005.43
2018-03-01T10:08:05.500Z,1005.41
2018-03-01T10:09:05.330Z,1005.39
2018-03-01T10:10:05.373Z,1005.40
2018-03-01T10:11:05.327Z,1005.38
2018-03-01T10:12:05.318Z,1005.51
2018-03-01T10:13:05.397Z,1005.42
2018-03-01T10:14:05.309Z,1005.40
2018-03-01T10:15:05.419Z,1005.38
2018-03-01T10:16:05.324Z,1005.33
2018-03-01T10:17:06.377Z,1005.39
2018-03-01T10:18:05.371Z,1005.42
2018-03-01T10:19:05.305Z,1005.20
2018-03-01T10:20:05.299Z,1005.27
2018-03-01T10:21:05.359Z,1005.36
2018-03-01T10:22:05.296Z,1005.40
2018-03-01T10:23:05.357Z,1005.28
2018-03-01T10:24:05.301Z,1005.24
2018-03-01T10:25:05.374Z,1005.24
2018-03-01T10:26:05.301Z,1005.27
2018-03-01T10:27:06.418Z,1005.22
2018-03-01T10:28:05.290Z,1005.23
2018-03-01T10:29:05.306Z,1005.25
2018-03-01T10:30:05.312Z,1005.18
2018-03-01T10:31:05.385Z,1005.05
2018-03-01T10:32:05.320Z,1005.02
2018-03-01T10:33:05.288Z,1005.09
2018-03-01T10:34:05.337Z,1005.04
2018-03-01T10:35:05.287Z,1005.04
2018-03-01T10:36:05.353Z,1004.99
2018-03-01T10:37:05.290Z,1005.04
2018-03-01T10:38:05.358Z,1005.01
2018-03-01T10:39:05.271Z,1005.02
2018-03-01T10:40:05.376Z,1004.93
2018-03-01T10:41:05.280Z,1004.93
2018-03-01T10:42:05.320Z,1004.95
2018-03-01T10:43:05.277Z,1004.88
2018-03-01T10:44:05.319Z,1004.92
2018-03-01T10:45:05.264Z,1004.82
2018-03-01T10:46:06.338Z,1004.79
2018-03-01T10:47:05.257Z,1004.88
2018-03-01T10:48:05.338Z,1004.91
2018-03-01T10:49:05.262Z,1004.76
2018-03-01T10:50:05.357Z,1004.81
2018-03-01T10:51:05.249Z,1004.81
2018-03-01T10:52:05.257Z,1004.79
2018-03-01T10:53:05.259Z,1004.71
2018-03-01T10:54:05.416Z,1004.68
2018-03-01T10:55:05.296Z,1004.65
2018-03-01T10:56:05.276Z,1004.73
2018-03-01T10:57:05.254Z,1004.69
2018-03-01T10:58:05.290Z,1004.63
2018-03-01T10:59:05.253Z,1004.72
2018-03-01T11:00:11.095Z,1004.60
2018-03-01T11:01:05.235Z,1004.71
2018-03-01T11:02:06.301Z,1004.62
2018-03-01T11:03:05.242Z,1004.54
2018-03-01T11:04:05.247Z,1004.50
2018-03-01T11:05:05.225Z,1004.50
2018-03-01T11:06:05.234Z,1004.47
2018-03-01T11:07:05.231Z,1004.51
2018-03-01T11:08:05.222Z,1004.49
2018-03-01T11:09:05.285Z,1004.46
2018-03-01T11:10:05.231Z,1004.42
2018-03-01T11:11:05.250Z,1004.33
2018-03-01T11:12:05.222Z,1004.38
2018-03-01T11:13:05.326Z,1004.45
2018-03-01T11:14:05.227Z,1004.46
2018-03-01T11:15:05.228Z,1004.30
2018-03-01T11:16:05.220Z,1004.45
2018-03-01T11:17:05.235Z,1004.48
2018-03-01T11:18:05.245Z,1004.36
2018-03-01T11:19:05.219Z,1004.28
2018-03-01T11:20:05.268Z,1004.24
2018-03-01T11:21:05.208Z,1004.24
2018-03-01T11:22:05.326Z,1004.19
2018-03-01T11:23:05.210Z,1004.30
2018-03-01T11:24:05.291Z,1004.22
2018-03-01T11:25:05.204Z,1004.19
2018-03-01T11:26:05.305Z,1004.06
2018-03-01T11:27:05.205Z,1004.20
2018-03-01T11:28:05.220Z,1004.07
2018-03-01T11:29:05.195Z,1004.10
2018-03-01T11:30:05.195Z,1004.11
2018-03-01T11:31:05.200Z,1004.11
2018-03-01T11:32:05.240Z,1004.03
2018-03-01T11:33:05.192Z,1004.09
2018-03-01T11:34:05.191Z,1004.04
2018-03-01T11:35:05.244Z,1004.14
2018-03-01T11:36:05.209Z,1004.05
2018-03-01T11:37:05.181Z,1004.07
2018-03-01T11:38:05.185Z,1004.17
2018-03-01T11:39:05.188Z,1004.21
2018-03-01T11:40:05.233Z,1004.23
2018-03-01T11:41:05.184Z,1004.07
2018-03-01T11:42:05.276Z,1004.13
2018-03-01T11:43:05.196Z,1004.10
2018-03-01T11:44:05.327Z,1004.15
2018-03-01T11:45:05.176Z,1004.07
2018-03-01T11:46:05.327Z,1004.08
2018-03-01T11:47:05.183Z,1003.93
2018-03-01T11:48:05.321Z,1003.89
2018-03-01T11:49:05.186Z,1003.97
2018-03-01T11:50:07.402Z,1003.89
2018-03-01T11:51:05.171Z,1003.76
2018-03-01T11:52:05.168Z,1003.69
2018-03-01T11:53:05.175Z,1003.74
2018-03-01T11:54:05.261Z,1003.66
2018-03-01T11:55:05.178Z,1003.69
2018-03-01T11:56:05.260Z,1003.68
2018-03-01T11:57:05.189Z,1003.64
2018-03-01T11:58:05.178Z,1003.41
2018-03-01T11:59:05.287Z,1003.59
2018-03-01T12:00:05.161Z,1003.55
2018-03-01T12:01:05.189Z,1003.51
2018-03-01T12:02:05.159Z,1003.59
2018-03-01T12:03:05.206Z,1003.60
2018-03-01T12:04:05.186Z,1003.51
2018-03-01T12:05:05.221Z,1003.59
2018-03-01T12:06:05.157Z,1003.45
2018-03-01T12:07:05.164Z,1003.45
2018-03-01T12:08:05.211Z,1003.53
2018-03-01T12:09:05.167Z,1003.54
2018-03-01T12:10:05.224Z,1003.67
2018-03-01T12:11:05.155Z,1003.50
2018-03-01T12:12:05.241Z,1003.58
2018-03-01T12:13:05.164Z,1003.45
2018-03-01T12:14:05.270Z,1003.50
2018-03-01T12:15:05.156Z,1003.47
2018-03-01T12:16:05.160Z,1003.51
2018-03-01T12:17:05.152Z,1003.59